sensor_id;sensor_type;location;lat;lon;timestamp;pressure;altitude;pressure_sealevel;temperature;humidity
41690;BME280;27372;42.658;23.256;2023-05-22T00:00:37;93586.88;;;14.04;87.96
41690;BME280;27372;42.658;23.256;2023-05-22T00:03:03;93576.19;;;13.42;90.97
41690;BME280;27372;42.658;23.256;2023-05-22T00:05:29;93575.56;;;13.25;93.84
41690;BME280;27372;42.658;23.256;2023-05-22T00:08:16;93563.84;;;13.00;95.07
41690;BME280;27372;42.658;23.256;2023-05-22T00:10:45;93561.72;;;12.92;95.65
41690;BME280;27372;42.658;23.256;2023-05-22T00:13:11;93568.25;;;12.89;96.87
41690;BME280;27372;42.658;23.256;2023-05-22T00:15:36;93564.03;;;12.83;97.46
41690;BME280;27372;42.658;23.256;2023-05-22T00:18:02;93564.81;;;12.83;97.93
41690;BME280;27372;42.658;23.256;2023-05-22T00:20:28;93564.84;;;12.88;97.62
41690;BME280;27372;42.658;23.256;2023-05-22T00:22:56;93567.78;;;12.97;96.88
41690;BME280;27372;42.658;23.256;2023-05-22T00:25:22;93568.34;;;13.04;96.51
41690;BME280;27372;42.658;23.256;2023-05-22T00:27:47;93572.81;;;13.04;96.28
41690;BME280;27372;42.658;23.256;2023-05-22T00:30:16;93565.72;;;13.04;96.39
41690;BME280;27372;42.658;23.256;2023-05-22T00:32:41;93573.47;;;13.27;95.50
41690;BME280;27372;42.658;23.256;2023-05-22T00:35:07;93570.84;;;13.32;95.17
41690;BME280;27372;42.658;23.256;2023-05-22T00:37:33;93576.38;;;13.30;95.23
41690;BME280;27372;42.658;23.256;2023-05-22T00:40:01;93574.63;;;13.46;94.82
41690;BME280;27372;42.658;23.256;2023-05-22T00:42:30;93586.56;;;13.70;93.35
41690;BME280;27372;42.658;23.256;2023-05-22T00:44:55;93582.91;;;13.76;92.20
41690;BME280;27372;42.658;23.256;2023-05-22T00:47:20;93587.09;;;13.66;92.43
41690;BME280;27372;42.658;23.256;2023-05-22T00:49:47;93590.00;;;13.75;91.99
41690;BME280;27372;42.658;23.256;2023-05-22T00:52:13;93592.13;;;13.73;91.57
41690;BME280;27372;42.658;23.256;2023-05-22T00:54:41;93588.66;;;13.57;92.18
41690;BME280;27372;42.658;23.256;2023-05-22T00:57:07;93587.81;;;13.46;92.90
41690;BME280;27372;42.658;23.256;2023-05-22T00:59:33;93593.66;;;13.59;92.92
41690;BME280;27372;42.658;23.256;2023-05-22T01:02:00;93580.06;;;13.29;93.96
41690;BME280;27372;42.658;23.256;2023-05-22T01:04:27;93579.66;;;13.00;96.07
41690;BME280;27372;42.658;23.256;2023-05-22T01:06:53;93583.59;;;12.97;97.73
41690;BME280;27372;42.658;23.256;2023-05-22T01:09:19;93565.66;;;12.94;97.47
41690;BME280;27372;42.658;23.256;2023-05-22T01:11:55;93588.03;;;12.86;98.51
41690;BME280;27372;42.658;23.256;2023-05-22T01:14:57;93569.72;;;12.69;98.69
41690;BME280;27372;42.658;23.256;2023-05-22T01:20:30;93575.88;;;12.85;97.99
41690;BME280;27372;42.658;23.256;2023-05-22T01:31:26;93568.19;;;12.79;98.58
41690;BME280;27372;42.658;23.256;2023-05-22T01:33:59;93569.56;;;12.81;98.67
41690;BME280;27372;42.658;23.256;2023-05-22T01:36:30;93569.56;;;12.86;97.68
41690;BME280;27372;42.658;23.256;2023-05-22T01:38:57;93565.44;;;13.01;97.46
41690;BME280;27372;42.658;23.256;2023-05-22T01:41:26;93572.81;;;12.99;97.86
41690;BME280;27372;42.658;23.256;2023-05-22T01:43:53;93567.53;;;12.99;97.26
41690;BME280;27372;42.658;23.256;2023-05-22T01:46:18;93558.53;;;12.89;97.65
41690;BME280;27372;42.658;23.256;2023-05-22T01:48:44;93551.16;;;12.92;97.04
41690;BME280;27372;42.658;23.256;2023-05-22T01:54:00;93557.94;;;12.82;97.87
41690;BME280;27372;42.658;23.256;2023-05-22T01:56:59;93562.91;;;12.73;99.48
41690;BME280;27372;42.658;23.256;2023-05-22T01:59:35;93573.25;;;12.85;97.61
41690;BME280;27372;42.658;23.256;2023-05-22T02:02:05;93551.88;;;12.77;97.95
41690;BME280;27372;42.658;23.256;2023-05-22T02:04:38;93553.47;;;12.83;97.66
41690;BME280;27372;42.658;23.256;2023-05-22T02:07:09;93555.56;;;12.76;98.83
41690;BME280;27372;42.658;23.256;2023-05-22T02:09:36;93551.00;;;12.66;98.88
41690;BME280;27372;42.658;23.256;2023-05-22T02:12:06;93568.41;;;12.67;98.46
41690;BME280;27372;42.658;23.256;2023-05-22T02:14:32;93557.47;;;12.48;99.34
41690;BME280;27372;42.658;23.256;2023-05-22T02:16:58;93562.53;;;12.54;99.44
41690;BME280;27372;42.658;23.256;2023-05-22T02:19:26;93565.63;;;12.46;100.00
41690;BME280;27372;42.658;23.256;2023-05-22T02:22:20;93567.34;;;12.68;99.28
41690;BME280;27372;42.658;23.256;2023-05-22T02:24:47;93566.81;;;12.66;98.97
41690;BME280;27372;42.658;23.256;2023-05-22T02:27:13;93561.47;;;12.50;99.59
41690;BME280;27372;42.658;23.256;2023-05-22T02:29:39;93565.34;;;12.42;100.00
41690;BME280;27372;42.658;23.256;2023-05-22T02:32:05;93563.84;;;12.19;100.00
41690;BME280;27372;42.658;23.256;2023-05-22T02:34:30;93561.03;;;12.31;100.00
41690;BME280;27372;42.658;23.256;2023-05-22T02:36:58;93565.13;;;12.49;100.00
41690;BME280;27372;42.658;23.256;2023-05-22T02:39:25;93569.44;;;12.66;99.56
41690;BME280;27372;42.658;23.256;2023-05-22T02:41:54;93559.94;;;12.27;100.00
41690;BME280;27372;42.658;23.256;2023-05-22T02:44:19;93557.28;;;12.22;100.00
41690;BME280;27372;42.658;23.256;2023-05-22T02:46:45;93559.66;;;12.23;100.00
41690;BME280;27372;42.658;23.256;2023-05-22T02:49:11;93554.09;;;12.15;100.00
41690;BME280;27372;42.658;23.256;2023-05-22T02:51:37;93559.34;;;11.87;100.00
41690;BME280;27372;42.658;23.256;2023-05-22T02:54:02;93552.13;;;11.77;100.00
41690;BME280;27372;42.658;23.256;2023-05-22T02:56:27;93553.31;;;11.64;100.00
41690;BME280;27372;42.658;23.256;2023-05-22T02:58:54;93550.81;;;12.02;100.00
41690;BME280;27372;42.658;23.256;2023-05-22T03:01:20;93553.28;;;12.14;100.00
41690;BME280;27372;42.658;23.256;2023-05-22T03:03:46;93552.50;;;12.14;100.00
41690;BME280;27372;42.658;23.256;2023-05-22T03:06:12;93541.56;;;12.32;100.00
41690;BME280;27372;42.658;23.256;2023-05-22T03:08:37;93547.69;;;12.43;100.00
41690;BME280;27372;42.658;23.256;2023-05-22T03:11:07;93558.34;;;12.58;100.00
41690;BME280;27372;42.658;23.256;2023-05-22T03:13:33;93554.13;;;12.57;100.00
41690;BME280;27372;42.658;23.256;2023-05-22T03:15:58;93565.69;;;12.56;100.00
41690;BME280;27372;42.658;23.256;2023-05-22T03:18:24;93556.97;;;12.51;100.00
41690;BME280;27372;42.658;23.256;2023-05-22T03:20:50;93565.44;;;12.58;100.00
41690;BME280;27372;42.658;23.256;2023-05-22T03:23:15;93570.94;;;12.51;100.00
41690;BME280;27372;42.658;23.256;2023-05-22T03:25:42;93566.38;;;12.41;100.00
41690;BME280;27372;42.658;23.256;2023-05-22T03:28:10;93556.19;;;12.50;100.00
41690;BME280;27372;42.658;23.256;2023-05-22T03:30:36;93556.25;;;12.61;100.00
41690;BME280;27372;42.658;23.256;2023-05-22T03:33:01;93561.47;;;12.50;100.00
41690;BME280;27372;42.658;23.256;2023-05-22T03:35:27;93558.63;;;12.62;100.00
41690;BME280;27372;42.658;23.256;2023-05-22T03:37:54;93564.81;;;12.83;100.00
41690;BME280;27372;42.658;23.256;2023-05-22T03:40:21;93563.25;;;12.87;98.78
41690;BME280;27372;42.658;23.256;2023-05-22T03:42:49;93555.56;;;12.76;98.84
41690;BME280;27372;42.658;23.256;2023-05-22T03:45:17;93544.75;;;12.77;99.12
41690;BME280;27372;42.658;23.256;2023-05-22T03:47:47;93559.84;;;12.87;98.23
41690;BME280;27372;42.658;23.256;2023-05-22T03:50:13;93560.69;;;12.55;100.00
41690;BME280;27372;42.658;23.256;2023-05-22T03:52:39;93567.03;;;12.59;100.00
41690;BME280;27372;42.658;23.256;2023-05-22T03:55:05;93563.34;;;12.55;100.00
41690;BME280;27372;42.658;23.256;2023-05-22T03:57:31;93554.59;;;12.49;100.00
41690;BME280;27372;42.658;23.256;2023-05-22T03:59:56;93558.75;;;12.40;100.00
41690;BME280;27372;42.658;23.256;2023-05-22T04:02:27;93556.31;;;12.33;100.00
41690;BME280;27372;42.658;23.256;2023-05-22T04:04:54;93560.72;;;12.60;100.00
41690;BME280;27372;42.658;23.256;2023-05-22T04:07:19;93561.63;;;12.38;100.00
41690;BME280;27372;42.658;23.256;2023-05-22T04:09:47;93565.53;;;12.31;100.00
41690;BME280;27372;42.658;23.256;2023-05-22T04:12:12;93570.34;;;12.44;100.00
41690;BME280;27372;42.658;23.256;2023-05-22T04:14:41;93564.41;;;12.59;100.00
41690;BME280;27372;42.658;23.256;2023-05-22T04:17:12;93567.75;;;12.92;100.00
41690;BME280;27372;42.658;23.256;2023-05-22T04:19:38;93576.03;;;12.63;100.00
41690;BME280;27372;42.658;23.256;2023-05-22T04:22:03;93562.41;;;12.77;100.00
41690;BME280;27372;42.658;23.256;2023-05-22T04:24:31;93561.31;;;12.72;100.00
41690;BME280;27372;42.658;23.256;2023-05-22T04:26:57;93557.53;;;13.01;100.00
41690;BME280;27372;42.658;23.256;2023-05-22T04:29:24;93561.81;;;13.17;99.33
41690;BME280;27372;42.658;23.256;2023-05-22T04:31:50;93575.66;;;13.40;98.08
41690;BME280;27372;42.658;23.256;2023-05-22T04:34:18;93574.53;;;13.31;97.19
41690;BME280;27372;42.658;23.256;2023-05-22T04:36:44;93583.56;;;13.40;97.41
41690;BME280;27372;42.658;23.256;2023-05-22T04:39:10;93575.22;;;13.11;99.28
41690;BME280;27372;42.658;23.256;2023-05-22T04:41:38;93579.81;;;13.36;98.33
41690;BME280;27372;42.658;23.256;2023-05-22T04:44:05;93582.63;;;13.72;96.07
41690;BME280;27372;42.658;23.256;2023-05-22T04:46:31;93575.72;;;13.61;96.35
41690;BME280;27372;42.658;23.256;2023-05-22T04:48:59;93579.72;;;13.89;93.53
41690;BME280;27372;42.658;23.256;2023-05-22T04:51:30;93586.38;;;14.07;92.55
41690;BME280;27372;42.658;23.256;2023-05-22T04:53:57;93588.44;;;13.85;92.82
41690;BME280;27372;42.658;23.256;2023-05-22T04:56:22;93585.53;;;13.81;93.30
41690;BME280;27372;42.658;23.256;2023-05-22T04:58:49;93588.47;;;14.05;91.25
41690;BME280;27372;42.658;23.256;2023-05-22T05:01:14;93587.47;;;14.68;89.46
41690;BME280;27372;42.658;23.256;2023-05-22T05:03:41;93581.03;;;15.11;86.48
41690;BME280;27372;42.658;23.256;2023-05-22T05:06:07;93578.91;;;15.18;83.29
41690;BME280;27372;42.658;23.256;2023-05-22T05:08:32;93590.72;;;15.46;82.81
41690;BME280;27372;42.658;23.256;2023-05-22T05:11:07;93585.28;;;15.72;80.83
41690;BME280;27372;42.658;23.256;2023-05-22T05:13:32;93596.22;;;15.60;81.52
41690;BME280;27372;42.658;23.256;2023-05-22T05:15:58;93591.28;;;15.38;83.85
41690;BME280;27372;42.658;23.256;2023-05-22T05:18:25;93593.56;;;15.60;81.98
41690;BME280;27372;42.658;23.256;2023-05-22T05:20:50;93591.78;;;16.06;80.08
41690;BME280;27372;42.658;23.256;2023-05-22T05:23:15;93596.38;;;16.29;79.21
41690;BME280;27372;42.658;23.256;2023-05-22T05:25:41;93594.44;;;16.01;78.47
41690;BME280;27372;42.658;23.256;2023-05-22T05:28:10;93596.97;;;16.56;77.28
41690;BME280;27372;42.658;23.256;2023-05-22T05:30:39;93595.53;;;16.69;76.92
41690;BME280;27372;42.658;23.256;2023-05-22T05:33:05;93596.72;;;16.87;74.75
41690;BME280;27372;42.658;23.256;2023-05-22T05:35:30;93592.31;;;17.06;74.12
41690;BME280;27372;42.658;23.256;2023-05-22T05:37:56;93590.69;;;17.11;72.50
41690;BME280;27372;42.658;23.256;2023-05-22T05:40:22;93598.03;;;17.43;73.16
41690;BME280;27372;42.658;23.256;2023-05-22T05:42:48;93598.94;;;17.58;72.35
41690;BME280;27372;42.658;23.256;2023-05-22T05:45:14;93597.34;;;17.57;70.75
41690;BME280;27372;42.658;23.256;2023-05-22T05:47:39;93595.34;;;17.67;70.86
41690;BME280;27372;42.658;23.256;2023-05-22T05:50:05;93609.31;;;17.78;70.26
41690;BME280;27372;42.658;23.256;2023-05-22T05:52:31;93593.88;;;18.90;100.00
41690;BME280;27372;42.658;23.256;2023-05-22T05:54:58;93592.97;;;19.42;94.85
41690;BME280;27372;42.658;23.256;2023-05-22T05:57:25;93608.13;;;19.97;96.39
41690;BME280;27372;42.658;23.256;2023-05-22T05:59:51;93603.91;;;20.55;90.60
41690;BME280;27372;42.658;23.256;2023-05-22T06:02:19;93601.13;;;20.60;88.55
41690;BME280;27372;42.658;23.256;2023-05-22T06:08:03;93614.47;;;20.60;74.36
41690;BME280;27372;42.658;23.256;2023-05-22T06:10:30;93596.03;;;20.73;79.36
41690;BME280;27372;42.658;23.256;2023-05-22T06:12:55;93596.63;;;21.15;80.72
41690;BME280;27372;42.658;23.256;2023-05-22T06:15:21;93601.16;;;21.46;75.47
41690;BME280;27372;42.658;23.256;2023-05-22T06:17:54;93610.34;;;20.77;60.04
41690;BME280;27372;42.658;23.256;2023-05-22T06:20:19;93600.59;;;20.95;70.24
41690;BME280;27372;42.658;23.256;2023-05-22T06:22:45;93610.81;;;21.33;76.25
41690;BME280;27372;42.658;23.256;2023-05-22T06:25:10;93609.34;;;21.18;74.97
41690;BME280;27372;42.658;23.256;2023-05-22T06:27:36;93611.41;;;20.90;77.07
41690;BME280;27372;42.658;23.256;2023-05-22T06:30:02;93614.22;;;21.16;72.15
41690;BME280;27372;42.658;23.256;2023-05-22T06:32:28;93602.56;;;21.12;75.27
41690;BME280;27372;42.658;23.256;2023-05-22T06:34:53;93613.53;;;21.42;73.17
41690;BME280;27372;42.658;23.256;2023-05-22T06:37:19;93613.41;;;21.16;62.23
41690;BME280;27372;42.658;23.256;2023-05-22T06:39:47;93608.78;;;21.30;68.06
41690;BME280;27372;42.658;23.256;2023-05-22T06:42:12;93599.25;;;21.47;73.46
41690;BME280;27372;42.658;23.256;2023-05-22T06:44:38;93599.16;;;21.20;66.52
41690;BME280;27372;42.658;23.256;2023-05-22T06:47:03;93604.25;;;21.39;71.59
41690;BME280;27372;42.658;23.256;2023-05-22T06:49:29;93606.81;;;21.13;66.99
41690;BME280;27372;42.658;23.256;2023-05-22T06:51:54;93602.41;;;21.49;75.91
41690;BME280;27372;42.658;23.256;2023-05-22T06:54:20;93600.56;;;21.18;66.27
41690;BME280;27372;42.658;23.256;2023-05-22T06:56:45;93599.16;;;21.20;71.05
41690;BME280;27372;42.658;23.256;2023-05-22T06:59:11;93593.25;;;21.41;75.20
41690;BME280;27372;42.658;23.256;2023-05-22T07:01:36;93603.09;;;21.63;68.09
41690;BME280;27372;42.658;23.256;2023-05-22T07:04:02;93604.66;;;21.24;68.84
41690;BME280;27372;42.658;23.256;2023-05-22T07:06:30;93598.97;;;21.17;66.86
41690;BME280;27372;42.658;23.256;2023-05-22T07:08:58;93613.53;;;21.42;74.08
41690;BME280;27372;42.658;23.256;2023-05-22T07:11:23;93597.72;;;21.54;72.61
41690;BME280;27372;42.658;23.256;2023-05-22T07:13:49;93597.16;;;21.66;70.19
41690;BME280;27372;42.658;23.256;2023-05-22T07:16:15;93597.03;;;21.40;65.01
41690;BME280;27372;42.658;23.256;2023-05-22T07:18:40;93601.94;;;21.47;67.00
41690;BME280;27372;42.658;23.256;2023-05-22T07:21:06;93606.91;;;21.71;65.57
41690;BME280;27372;42.658;23.256;2023-05-22T07:23:31;93592.44;;;21.72;66.54
41690;BME280;27372;42.658;23.256;2023-05-22T07:25:56;93592.22;;;21.19;56.35
41690;BME280;27372;42.658;23.256;2023-05-22T07:28:22;93591.84;;;21.44;63.87
41690;BME280;27372;42.658;23.256;2023-05-22T07:30:47;93590.94;;;21.48;60.59
41690;BME280;27372;42.658;23.256;2023-05-22T07:33:13;93591.25;;;21.47;62.73
41690;BME280;27372;42.658;23.256;2023-05-22T07:35:38;93602.03;;;21.33;57.28
41690;BME280;27372;42.658;23.256;2023-05-22T07:38:03;93597.81;;;21.00;60.16
41690;BME280;27372;42.658;23.256;2023-05-22T07:40:30;93601.81;;;20.89;60.33
41690;BME280;27372;42.658;23.256;2023-05-22T07:42:56;93595.38;;;21.21;61.23
41690;BME280;27372;42.658;23.256;2023-05-22T07:45:22;93595.66;;;21.11;62.90
41690;BME280;27372;42.658;23.256;2023-05-22T07:47:47;93604.88;;;21.05;60.30
41690;BME280;27372;42.658;23.256;2023-05-22T07:50:13;93589.19;;;21.44;64.72
41690;BME280;27372;42.658;23.256;2023-05-22T07:52:38;93590.47;;;21.46;72.43
41690;BME280;27372;42.658;23.256;2023-05-22T07:55:04;93601.44;;;21.36;55.06
41690;BME280;27372;42.658;23.256;2023-05-22T07:57:31;93593.19;;;21.23;51.75
41690;BME280;27372;42.658;23.256;2023-05-22T08:00:01;93602.41;;;21.08;49.94
41690;BME280;27372;42.658;23.256;2023-05-22T08:02:34;93598.53;;;21.23;50.52
41690;BME280;27372;42.658;23.256;2023-05-22T08:04:59;93595.88;;;21.23;49.41
41690;BME280;27372;42.658;23.256;2023-05-22T08:07:25;93592.63;;;21.04;48.00
41690;BME280;27372;42.658;23.256;2023-05-22T08:09:50;93589.97;;;21.44;48.04
41690;BME280;27372;42.658;23.256;2023-05-22T08:12:15;93595.34;;;21.13;47.22
41690;BME280;27372;42.658;23.256;2023-05-22T08:14:41;93607.56;;;21.05;46.81
41690;BME280;27372;42.658;23.256;2023-05-22T08:17:19;93601.06;;;21.29;46.47
41690;BME280;27372;42.658;23.256;2023-05-22T08:19:47;93591.88;;;21.12;46.69
41690;BME280;27372;42.658;23.256;2023-05-22T08:22:12;93595.19;;;20.86;47.79
41690;BME280;27372;42.658;23.256;2023-05-22T08:24:38;93592.72;;;21.21;46.00
41690;BME280;27372;42.658;23.256;2023-05-22T08:27:04;93603.75;;;21.69;46.34
41690;BME280;27372;42.658;23.256;2023-05-22T08:29:29;93586.91;;;21.60;45.70
41690;BME280;27372;42.658;23.256;2023-05-22T08:31:55;93589.69;;;22.12;46.03
41690;BME280;27372;42.658;23.256;2023-05-22T08:34:25;93597.09;;;22.15;42.98
41690;BME280;27372;42.658;23.256;2023-05-22T08:36:50;93588.41;;;21.92;43.12
41690;BME280;27372;42.658;23.256;2023-05-22T08:39:16;93592.72;;;22.55;43.28
41690;BME280;27372;42.658;23.256;2023-05-22T08:41:43;93593.94;;;22.75;43.07
41690;BME280;27372;42.658;23.256;2023-05-22T08:44:08;93599.63;;;22.82;39.24
41690;BME280;27372;42.658;23.256;2023-05-22T08:46:38;93594.66;;;23.10;38.44
41690;BME280;27372;42.658;23.256;2023-05-22T08:49:07;93602.22;;;23.26;39.22
41690;BME280;27372;42.658;23.256;2023-05-22T08:51:37;93577.38;;;21.76;43.11
41690;BME280;27372;42.658;23.256;2023-05-22T08:54:06;93593.31;;;22.34;42.12
41690;BME280;27372;42.658;23.256;2023-05-22T08:56:33;93594.44;;;22.59;41.64
41690;BME280;27372;42.658;23.256;2023-05-22T08:59:05;93579.00;;;22.56;40.10
41690;BME280;27372;42.658;23.256;2023-05-22T09:01:31;93579.81;;;22.57;40.41
41690;BME280;27372;42.658;23.256;2023-05-22T09:04:01;93586.25;;;22.12;37.98
41690;BME280;27372;42.658;23.256;2023-05-22T09:06:28;93575.88;;;21.52;39.97
41690;BME280;27372;42.658;23.256;2023-05-22T09:08:59;93572.78;;;21.59;39.14
41690;BME280;27372;42.658;23.256;2023-05-22T09:11:25;93578.00;;;21.33;39.21
41690;BME280;27372;42.658;23.256;2023-05-22T09:14:05;93578.81;;;21.42;40.11
41690;BME280;27372;42.658;23.256;2023-05-22T09:16:31;93581.44;;;21.65;38.63
41690;BME280;27372;42.658;23.256;2023-05-22T09:18:56;93586.22;;;22.03;38.17
41690;BME280;27372;42.658;23.256;2023-05-22T09:21:26;93579.34;;;22.55;38.28
41690;BME280;27372;42.658;23.256;2023-05-22T09:23:53;93568.63;;;22.55;37.22
41690;BME280;27372;42.658;23.256;2023-05-22T09:26:19;93577.59;;;22.76;37.64
41690;BME280;27372;42.658;23.256;2023-05-22T09:28:46;93581.41;;;22.58;37.51
41690;BME280;27372;42.658;23.256;2023-05-22T09:31:11;93576.75;;;23.50;37.29
41690;BME280;27372;42.658;23.256;2023-05-22T09:33:37;93573.72;;;23.60;35.95
41690;BME280;27372;42.658;23.256;2023-05-22T09:36:02;93575.97;;;23.49;34.58
41690;BME280;27372;42.658;23.256;2023-05-22T09:38:28;93565.81;;;23.16;34.68
41690;BME280;27372;42.658;23.256;2023-05-22T09:40:55;93571.19;;;23.25;35.91
41690;BME280;27372;42.658;23.256;2023-05-22T09:43:22;93564.56;;;23.14;34.79
41690;BME280;27372;42.658;23.256;2023-05-22T09:45:55;93560.03;;;23.05;35.16
41690;BME280;27372;42.658;23.256;2023-05-22T09:48:21;93571.13;;;22.77;35.57
41690;BME280;27372;42.658;23.256;2023-05-22T09:50:46;93574.09;;;22.76;39.17
41690;BME280;27372;42.658;23.256;2023-05-22T09:53:15;93580.84;;;22.91;39.45
41690;BME280;27372;42.658;23.256;2023-05-22T09:55:42;93571.31;;;22.63;38.54
41690;BME280;27372;42.658;23.256;2023-05-22T09:58:12;93572.72;;;22.43;37.48
41690;BME280;27372;42.658;23.256;2023-05-22T10:00:37;93580.56;;;22.31;39.46
41690;BME280;27372;42.658;23.256;2023-05-22T10:03:08;93575.66;;;21.89;40.75
41690;BME280;27372;42.658;23.256;2023-05-22T10:05:36;93574.22;;;21.74;40.29
41690;BME280;27372;42.658;23.256;2023-05-22T10:08:08;93589.72;;;21.54;41.09
41690;BME280;27372;42.658;23.256;2023-05-22T10:10:35;93576.63;;;21.44;43.63
41690;BME280;27372;42.658;23.256;2023-05-22T10:13:03;93578.66;;;21.07;44.48
41690;BME280;27372;42.658;23.256;2023-05-22T10:15:31;93578.38;;;20.63;45.30
41690;BME280;27372;42.658;23.256;2023-05-22T10:17:57;93584.78;;;20.76;46.20
41690;BME280;27372;42.658;23.256;2023-05-22T10:20:28;93578.97;;;20.74;47.30
41690;BME280;27372;42.658;23.256;2023-05-22T10:22:54;93590.53;;;20.69;48.38
41690;BME280;27372;42.658;23.256;2023-05-22T10:25:20;93583.38;;;20.56;49.43
41690;BME280;27372;42.658;23.256;2023-05-22T10:27:46;93579.53;;;20.48;48.92
41690;BME280;27372;42.658;23.256;2023-05-22T10:30:20;93585.00;;;20.66;47.96
41690;BME280;27372;42.658;23.256;2023-05-22T10:35:20;93583.28;;;20.47;48.98
41690;BME280;27372;42.658;23.256;2023-05-22T10:37:50;93582.84;;;20.45;48.44
41690;BME280;27372;42.658;23.256;2023-05-22T10:40:35;93584.91;;;20.11;49.89
41690;BME280;27372;42.658;23.256;2023-05-22T10:43:02;93586.41;;;19.76;51.50
41690;BME280;27372;42.658;23.256;2023-05-22T10:45:30;93597.28;;;19.37;53.18
41690;BME280;27372;42.658;23.256;2023-05-22T10:48:04;93609.34;;;18.69;62.39
41690;BME280;27372;42.658;23.256;2023-05-22T10:50:32;93617.53;;;18.01;68.38
41690;BME280;27372;42.658;23.256;2023-05-22T10:53:23;93617.63;;;17.47;75.94
41690;BME280;27372;42.658;23.256;2023-05-22T10:55:59;93601.16;;;17.69;85.17
41690;BME280;27372;42.658;23.256;2023-05-22T10:58:33;93614.28;;;17.85;81.94
41690;BME280;27372;42.658;23.256;2023-05-22T11:01:15;93616.47;;;17.78;79.62
41690;BME280;27372;42.658;23.256;2023-05-22T11:06:48;93607.81;;;16.59;81.01
41690;BME280;27372;42.658;23.256;2023-05-22T11:09:17;93616.03;;;16.63;77.34
41690;BME280;27372;42.658;23.256;2023-05-22T11:11:44;93595.13;;;16.56;81.79
41690;BME280;27372;42.658;23.256;2023-05-22T11:14:15;93592.88;;;16.69;75.90
41690;BME280;27372;42.658;23.256;2023-05-22T11:16:42;93596.97;;;17.20;72.24
41690;BME280;27372;42.658;23.256;2023-05-22T11:19:09;93603.09;;;17.64;73.57
41690;BME280;27372;42.658;23.256;2023-05-22T11:21:45;93597.00;;;18.26;73.71
41690;BME280;27372;42.658;23.256;2023-05-22T11:24:12;93585.13;;;18.56;66.64
41690;BME280;27372;42.658;23.256;2023-05-22T11:26:43;93595.19;;;18.73;68.11
41690;BME280;27372;42.658;23.256;2023-05-22T11:29:08;93583.63;;;18.64;69.23
41690;BME280;27372;42.658;23.256;2023-05-22T11:31:35;93575.22;;;18.43;76.37
41690;BME280;27372;42.658;23.256;2023-05-22T11:34:01;93588.41;;;18.48;74.50
41690;BME280;27372;42.658;23.256;2023-05-22T11:36:30;93588.88;;;18.17;79.51
41690;BME280;27372;42.658;23.256;2023-05-22T11:38:59;93603.00;;;18.51;79.13
41690;BME280;27372;42.658;23.256;2023-05-22T11:41:32;93619.78;;;17.89;78.73
41690;BME280;27372;42.658;23.256;2023-05-22T11:43:59;93632.72;;;16.98;78.42
41690;BME280;27372;42.658;23.256;2023-05-22T11:46:25;93646.34;;;16.07;87.29
41690;BME280;27372;42.658;23.256;2023-05-22T11:48:51;93633.91;;;15.31;91.47
41690;BME280;27372;42.658;23.256;2023-05-22T11:51:20;93630.81;;;14.72;89.38
41690;BME280;27372;42.658;23.256;2023-05-22T11:53:51;93645.03;;;14.40;90.10
41690;BME280;27372;42.658;23.256;2023-05-22T11:56:19;93633.66;;;14.24;92.32
41690;BME280;27372;42.658;23.256;2023-05-22T11:58:48;93641.06;;;14.22;91.82
41690;BME280;27372;42.658;23.256;2023-05-22T12:01:14;93645.56;;;14.58;90.80
41690;BME280;27372;42.658;23.256;2023-05-22T12:03:42;93634.25;;;14.78;91.69
41690;BME280;27372;42.658;23.256;2023-05-22T12:06:08;93635.56;;;14.70;87.14
41690;BME280;27372;42.658;23.256;2023-05-22T12:08:33;93637.69;;;14.84;89.71
41690;BME280;27372;42.658;23.256;2023-05-22T12:11:03;93622.88;;;14.88;84.74
41690;BME280;27372;42.658;23.256;2023-05-22T12:13:29;93622.06;;;14.98;83.27
41690;BME280;27372;42.658;23.256;2023-05-22T12:15:58;93606.97;;;14.98;82.21
41690;BME280;27372;42.658;23.256;2023-05-22T12:18:34;93619.91;;;15.15;81.38
41690;BME280;27372;42.658;23.256;2023-05-22T12:21:06;93629.41;;;15.21;82.86
41690;BME280;27372;42.658;23.256;2023-05-22T12:23:32;93622.81;;;15.19;81.38
41690;BME280;27372;42.658;23.256;2023-05-22T12:26:16;93619.91;;;15.15;78.86
41690;BME280;27372;42.658;23.256;2023-05-22T12:28:43;93613.03;;;15.14;81.35
41690;BME280;27372;42.658;23.256;2023-05-22T12:31:08;93603.25;;;15.15;81.46
41690;BME280;27372;42.658;23.256;2023-05-22T12:33:34;93600.34;;;15.11;82.19
41690;BME280;27372;42.658;23.256;2023-05-22T12:35:59;93604.03;;;15.15;79.82
41690;BME280;27372;42.658;23.256;2023-05-22T12:38:36;93593.91;;;15.43;82.06
41690;BME280;27372;42.658;23.256;2023-05-22T12:41:02;93596.16;;;15.76;85.77
41690;BME280;27372;42.658;23.256;2023-05-22T12:43:28;93595.50;;;16.05;81.82
41690;BME280;27372;42.658;23.256;2023-05-22T12:45:53;93594.84;;;16.58;83.15
41690;BME280;27372;42.658;23.256;2023-05-22T12:48:28;93600.25;;;17.06;81.94
41690;BME280;27372;42.658;23.256;2023-05-22T12:50:57;93604.13;;;17.44;81.63
41690;BME280;27372;42.658;23.256;2023-05-22T12:53:25;93599.97;;;17.81;80.48
41690;BME280;27372;42.658;23.256;2023-05-22T12:55:51;93602.97;;;18.18;74.67
41690;BME280;27372;42.658;23.256;2023-05-22T12:58:16;93607.78;;;19.01;72.62
41690;BME280;27372;42.658;23.256;2023-05-22T13:00:41;93598.84;;;19.94;70.60
41690;BME280;27372;42.658;23.256;2023-05-22T13:03:08;93590.75;;;20.36;70.76
41690;BME280;27372;42.658;23.256;2023-05-22T13:05:33;93592.69;;;20.67;66.83
41690;BME280;27372;42.658;23.256;2023-05-22T13:08:07;93591.72;;;21.08;62.34
41690;BME280;27372;42.658;23.256;2023-05-22T13:10:32;93586.50;;;21.44;64.34
41690;BME280;27372;42.658;23.256;2023-05-22T13:12:59;93582.94;;;21.57;57.56